Time;durP1;ratioP1;P1;durP2;ratioP2;P2;SDS_P1;SDS_P2;PMS_P1;PMS_P2;Temp;Humidity;BMP_temperature;BMP_pressure;BME280_temperature;BME280_humidity;BME280_pressure;Samples;Min_cycle;Max_cycle;Signal;HPM_P1;HPM_P2
2022/02/22 00:00:28;;;;;;;3.90;1.57;;;;;;;4.81;92.59;152597.72;5041821;28;20448;-78
2022/02/22 00:03:04;;;;;;;3.50;1.60;;;;;;;4.84;93.66;152606.72;5012296;28;20448;-78
2022/02/22 00:05:41;;;;;;;2.80;1.80;;;;;;;4.80;94.93;152595.13;5042342;28;20985;-78
2022/02/22 00:08:16;;;;;;;3.07;1.80;;;;;;;4.79;93.50;152593.84;5013666;28;20447;-78
2022/02/22 00:10:52;;;;;;;3.53;1.50;;;;;;;4.83;94.54;152604.16;5026432;28;20439;-78
2022/02/22 00:13:28;;;;;;;2.00;1.60;;;;;;;4.80;91.96;152596.44;5026505;28;20451;-78
2022/02/22 00:16:05;;;;;;;1.43;1.10;;;;;;;4.88;90.77;152617.06;5024471;28;20550;-78
2022/02/22 00:18:41;;;;;;;2.77;1.43;;;;;;;4.90;91.65;152622.19;5027831;28;20451;-78
2022/02/22 00:21:18;;;;;;;9.03;1.40;;;;;;;4.87;91.54;152613.22;5045616;28;20446;-78
2022/02/22 00:23:54;;;;;;;2.80;1.13;;;;;;;4.86;91.33;152611.91;5029456;28;20443;-78
2022/02/22 00:26:29;;;;;;;2.60;1.40;;;;;;;4.85;89.37;152609.31;5026799;28;20487;-78
2022/02/22 00:29:05;;;;;;;1.50;1.13;;;;;;;4.91;91.96;152623.50;5014035;28;20447;-78
2022/02/22 00:31:41;;;;;;;4.87;1.73;;;;;;;4.90;88.68;152622.19;5013369;28;20981;-78
2022/02/22 00:34:17;;;;;;;3.50;1.50;;;;;;;4.91;90.79;152623.50;5028330;28;20475;-78
2022/02/22 00:36:53;;;;;;;2.40;1.50;;;;;;;4.90;91.39;152622.19;5024520;28;20444;-78
2022/02/22 00:39:29;;;;;;;1.80;1.33;;;;;;;4.85;92.41;152608.03;5013209;28;20884;-78
2022/02/22 00:42:05;;;;;;;2.40;1.83;;;;;;;4.81;91.31;152599.03;5026438;28;20443;-78
2022/02/22 00:44:41;;;;;;;3.37;1.57;;;;;;;4.77;91.36;152588.69;5042527;28;20498;-78
2022/02/22 00:47:16;;;;;;;2.90;1.60;;;;;;;4.76;91.83;152586.16;5028154;28;20569;-78
2022/02/22 00:49:52;;;;;;;2.10;1.40;;;;;;;4.75;90.99;152583.56;5013094;28;20471;-78
2022/02/22 00:52:29;;;;;;;1.93;1.20;;;;;;;4.77;91.59;152588.69;5026934;28;20828;-78
2022/02/22 00:55:06;;;;;;;3.20;1.87;;;;;;;4.81;89.70;152597.72;5026063;28;20444;-78
2022/02/22 00:57:43;;;;;;;2.60;1.57;;;;;;;4.79;90.23;152593.84;5028658;28;20918;-78
2022/02/22 01:00:19;;;;;;;2.90;1.30;;;;;;;4.82;90.95;152600.28;5024868;28;20452;-78
2022/02/22 01:02:55;;;;;;;5.80;1.60;;;;;;;4.77;88.51;152588.69;5030889;28;20447;-78
2022/02/22 01:05:31;;;;;;;4.53;1.67;;;;;;;4.77;88.43;152588.69;5044600;28;21014;-78
2022/02/22 01:08:08;;;;;;;4.50;2.10;;;;;;;4.73;92.21;152578.41;5016573;28;20432;-78
2022/02/22 01:10:43;;;;;;;2.87;1.20;;;;;;;4.71;88.13;152573.22;5030107;28;20467;-78
2022/02/22 01:13:20;;;;;;;3.70;1.37;;;;;;;4.69;87.08;152566.78;5032719;28;20823;-77
2022/02/22 01:15:55;;;;;;;2.97;1.23;;;;;;;4.69;87.95;152568.06;5030163;28;20546;-77
2022/02/22 01:18:31;;;;;;;3.67;1.70;;;;;;;4.67;88.75;152562.94;5026759;28;20439;-78
2022/02/22 01:21:06;;;;;;;2.03;1.43;;;;;;;4.61;90.90;152547.47;5013747;28;20463;-77
2022/02/22 01:23:43;;;;;;;4.73;1.60;;;;;;;4.59;89.25;152541.03;5016816;28;20486;-78
2022/02/22 01:26:19;;;;;;;2.30;1.63;;;;;;;4.61;88.52;152547.47;5030287;28;20475;-78
2022/02/22 01:28:55;;;;;;;2.20;1.60;;;;;;;4.62;90.29;152548.75;5014352;28;20885;-78
2022/02/22 01:31:30;;;;;;;3.47;1.70;;;;;;;4.59;90.31;152542.31;5027507;28;20946;-78
2022/02/22 01:34:06;;;;;;;9.43;2.00;;;;;;;4.53;92.09;152526.84;5029846;28;20842;-77
2022/02/22 01:36:41;;;;;;;5.13;1.60;;;;;;;4.53;89.10;152526.84;5027192;28;20829;-77
2022/02/22 01:39:18;;;;;;;5.43;1.43;;;;;;;4.55;90.80;152532.03;5050406;28;20439;-78
2022/02/22 01:41:54;;;;;;;2.50;1.37;;;;;;;4.51;91.27;152521.69;5029129;28;20450;-78
2022/02/22 01:44:29;;;;;;;2.93;1.63;;;;;;;4.57;90.41;152535.88;5016226;28;20450;-78
2022/02/22 01:47:06;;;;;;;3.43;1.57;;;;;;;4.55;92.27;152532.03;5047674;28;20832;-78
2022/02/22 01:49:41;;;;;;;3.90;1.43;;;;;;;4.54;94.93;152529.44;5049055;28;20569;-78
2022/02/22 01:52:17;;;;;;;5.17;1.60;;;;;;;4.54;94.93;152529.44;5045409;28;20459;-78
2022/02/22 01:54:54;;;;;;;4.80;1.43;;;;;;;4.50;93.95;152519.09;5030639;28;20467;-77
2022/02/22 01:57:31;;;;;;;3.00;1.40;;;;;;;4.46;94.76;152508.81;5028842;28;20462;-77
2022/02/22 02:00:10;;;;;;;4.67;1.67;;;;;;;4.38;96.61;152488.22;5030354;28;20450;-78
2022/02/22 02:02:51;;;;;;;4.20;1.73;;;;;;;4.37;95.41;152485.63;5029504;28;20942;-77
2022/02/22 02:05:26;;;;;;;2.27;1.40;;;;;;;4.30;95.81;152467.59;5028924;28;20463;-78
2022/02/22 02:08:02;;;;;;;3.30;1.60;;;;;;;4.30;93.77;152467.59;5044926;28;20534;-78
2022/02/22 02:10:39;;;;;;;4.03;1.60;;;;;;;4.27;94.86;152461.16;5013987;28;20499;-78
2022/02/22 02:13:14;;;;;;;1.70;1.30;;;;;;;4.28;93.78;152462.47;5030070;28;20432;-78
2022/02/22 02:15:50;;;;;;;2.20;1.77;;;;;;;4.27;94.86;152461.16;5030905;28;20455;-78
2022/02/22 02:18:25;;;;;;;4.00;1.60;;;;;;;4.22;94.50;152447.00;5015858;28;20459;-78
2022/02/22 02:21:02;;;;;;;2.40;1.20;;;;;;;4.18;93.92;152436.72;5015728;28;20491;-78
2022/02/22 02:23:39;;;;;;;3.37;1.53;;;;;;;4.17;92.41;152435.41;5029456;28;20510;-78
2022/02/22 02:26:15;;;;;;;2.90;1.57;;;;;;;4.20;92.65;152441.84;5029193;28;20464;-78
2022/02/22 02:28:50;;;;;;;1.90;1.20;;;;;;;4.18;91.72;152436.72;5028520;28;20511;-78
2022/02/22 02:31:26;;;;;;;4.30;1.43;;;;;;;4.15;93.35;152428.97;5030979;28;20546;-78
2022/02/22 02:34:02;;;;;;;2.07;1.50;;;;;;;4.13;91.41;152423.84;5028354;28;20439;-78
2022/02/22 02:36:40;;;;;;;1.77;1.33;;;;;;;4.15;92.37;152430.28;5029090;28;20487;-78
2022/02/22 02:39:16;;;;;;;2.63;1.50;;;;;;;4.16;92.90;152432.81;5029097;28;20526;-78
2022/02/22 02:41:52;;;;;;;5.03;1.70;;;;;;;4.13;94.05;152423.84;5032029;28;20546;-78
2022/02/22 02:44:28;;;;;;;3.80;1.60;;;;;;;4.11;94.07;152418.66;5028638;28;20513;-78
2022/02/22 02:47:04;;;;;;;3.17;1.97;;;;;;;4.02;93.52;152395.50;5030848;28;20467;-78
2022/02/22 02:49:41;;;;;;;3.90;1.90;;;;;;;4.04;94.74;152401.94;5041596;28;20965;-78
2022/02/22 02:52:16;;;;;;;7.60;2.27;;;;;;;4.03;94.63;152398.03;5051803;28;20848;-78
2022/02/22 02:54:54;;;;;;;1.90;1.53;;;;;;;4.02;94.45;152395.50;5036663;28;20904;-78
2022/02/22 02:57:30;;;;;;;3.80;1.57;;;;;;;3.95;94.94;152377.44;5034766;28;20455;-78
2022/02/22 03:00:08;;;;;;;7.30;2.23;;;;;;;3.99;95.64;152389.06;5050528;28;20953;-78
2022/02/22 03:02:43;;;;;;;4.13;1.77;;;;;;;3.96;92.55;152380.03;5032979;28;20451;-78
2022/02/22 03:05:20;;;;;;;7.20;2.60;;;;;;;3.98;93.28;152385.16;5031630;28;20454;-78
2022/02/22 03:07:59;;;;;;;4.40;1.40;;;;;;;3.98;92.71;152385.16;5032184;28;20434;-78
2022/02/22 03:10:35;;;;;;;4.97;1.47;;;;;;;3.98;94.57;152385.16;5048364;28;20451;-78
2022/02/22 03:13:11;;;;;;;5.90;1.77;;;;;;;3.91;93.42;152367.16;5031451;28;20446;-78
2022/02/22 03:15:46;;;;;;;2.90;1.37;;;;;;;3.90;91.08;152365.84;5032196;28;20451;-78
2022/02/22 03:18:22;;;;;;;6.27;1.77;;;;;;;3.96;90.45;152380.03;5050469;28;20450;-78
2022/02/22 03:20:58;;;;;;;5.07;2.00;;;;;;;3.99;93.35;152389.06;5016045;28;20482;-78
2022/02/22 03:23:33;;;;;;;2.80;1.30;;;;;;;3.91;90.55;152368.47;5047994;28;20482;-78
2022/02/22 03:26:10;;;;;;;4.63;1.60;;;;;;;3.93;90.41;152373.59;5021069;28;20482;-78
2022/02/22 03:28:46;;;;;;;2.17;1.70;;;;;;;3.93;90.96;152372.28;5018874;28;20447;-78
2022/02/22 03:31:21;;;;;;;4.40;1.70;;;;;;;3.90;92.35;152364.56;5047481;28;20458;-78
2022/02/22 03:33:58;;;;;;;2.90;1.60;;;;;;;3.89;91.21;152362.00;5028383;28;20908;-78
2022/02/22 03:36:33;;;;;;;1.80;1.30;;;;;;;3.87;91.09;152356.81;5017539;28;20601;-78
2022/02/22 03:39:09;;;;;;;7.30;1.77;;;;;;;3.91;90.91;152367.16;5017604;28;20454;-78
2022/02/22 03:41:46;;;;;;;8.20;2.10;;;;;;;3.85;91.47;152351.69;5029299;28;20458;-78
2022/02/22 03:44:21;;;;;;;2.80;1.90;;;;;;;3.87;93.20;152356.81;5013952;28;20567;-78
2022/02/22 03:46:57;;;;;;;2.90;1.60;;;;;;;3.82;93.14;152343.97;5024474;28;20498;-78
2022/02/22 03:49:33;;;;;;;1.93;1.50;;;;;;;3.79;95.04;152336.22;5049055;28;20469;-78
2022/02/22 03:52:08;;;;;;;3.97;1.93;;;;;;;3.82;92.78;152345.25;5026081;28;20444;-77
2022/02/22 03:54:44;;;;;;;4.13;1.70;;;;;;;3.82;93.48;152343.97;5049523;28;20470;-78
2022/02/22 03:57:21;;;;;;;2.67;1.20;;;;;;;3.81;93.33;152341.41;5028136;28;20447;-78
2022/02/22 03:59:56;;;;;;;2.57;1.50;;;;;;;3.80;93.29;152338.81;5046387;28;20956;-78
2022/02/22 04:02:32;;;;;;;5.23;1.63;;;;;;;3.78;92.75;152333.69;5030499;28;20459;-78
2022/02/22 04:05:09;;;;;;;3.57;1.90;;;;;;;3.79;92.84;152337.53;5030209;28;20439;-78
2022/02/22 04:07:44;;;;;;;7.10;1.77;;;;;;;3.79;94.74;152336.22;5048497;28;20465;-78
2022/02/22 04:10:20;;;;;;;4.23;1.93;;;;;;;3.79;93.19;152337.53;5031509;28;20435;-78
2022/02/22 04:12:57;;;;;;;3.37;1.77;;;;;;;3.79;93.87;152336.22;5027820;28;20443;-78
2022/02/22 04:15:33;;;;;;;3.43;2.07;;;;;;;3.75;94.02;152327.25;5030000;28;20779;-78
2022/02/22 04:18:08;;;;;;;6.50;2.27;;;;;;;3.76;95.18;152329.78;5045396;28;20442;-78
2022/02/22 04:20:45;;;;;;;3.23;1.57;;;;;;;3.80;92.39;152340.13;5049572;28;20458;-78
2022/02/22 04:23:20;;;;;;;3.03;1.80;;;;;;;3.82;93.18;152345.25;5023730;28;20508;-78
2022/02/22 04:25:56;;;;;;;4.27;1.70;;;;;;;3.85;93.84;152351.69;5029180;28;20470;-78
2022/02/22 04:28:33;;;;;;;3.60;1.90;;;;;;;3.87;93.33;152356.81;5032948;28;20458;-78
2022/02/22 04:31:08;;;;;;;2.67;2.10;;;;;;;3.87;94.30;152356.81;5030675;28;20968;-78
2022/02/22 04:33:43;;;;;;;3.73;1.83;;;;;;;3.86;94.28;152354.28;5030082;28;20945;-78
2022/02/22 04:36:19;;;;;;;4.40;2.60;;;;;;;3.93;95.38;152372.28;5027952;28;20444;-78
2022/02/22 04:38:54;;;;;;;3.50;1.97;;;;;;;3.93;94.31;152373.59;5029516;28;20446;-78
2022/02/22 04:41:30;;;;;;;5.50;2.13;;;;;;;3.93;95.24;152373.59;5030367;28;20960;-78
2022/02/22 04:44:07;;;;;;;3.53;2.50;;;;;;;3.91;96.13;152367.16;5034907;28;20994;-78
2022/02/22 04:46:43;;;;;;;2.43;1.93;;;;;;;3.88;94.52;152360.72;5030861;28;22546;-78
2022/02/22 04:49:19;;;;;;;3.00;1.87;;;;;;;3.87;95.55;152356.81;5049876;28;20505;-78
2022/02/22 04:51:55;;;;;;;2.83;2.23;;;;;;;3.89;94.17;152362.00;5029028;28;20459;-78
2022/02/22 04:54:30;;;;;;;4.80;2.40;;;;;;;3.80;94.17;152340.13;5016747;28;20525;-78
2022/02/22 04:57:06;;;;;;;7.50;2.43;;;;;;;3.76;95.56;152328.53;5028172;28;20454;-78
2022/02/22 04:59:43;;;;;;;5.60;2.40;;;;;;;3.74;95.27;152323.34;5017217;28;20953;-78
2022/02/22 05:02:19;;;;;;;4.37;1.70;;;;;;;3.67;95.30;152307.94;5031731;28;20447;-77
2022/02/22 05:04:54;;;;;;;2.63;1.87;;;;;;;3.70;94.67;152314.38;5032606;28;20441;-77
2022/02/22 05:07:30;;;;;;;3.53;1.73;;;;;;;3.68;94.22;152309.19;5024888;28;20458;-78
2022/02/22 05:10:06;;;;;;;6.23;2.50;;;;;;;3.61;96.44;152291.19;5029594;28;20458;-78
2022/02/22 05:12:41;;;;;;;3.53;2.20;;;;;;;3.59;94.51;152286.03;5016737;28;20490;-78
2022/02/22 05:15:18;;;;;;;4.00;2.27;;;;;;;3.56;95.53;152279.63;5029878;28;20458;-78
2022/02/22 05:17:54;;;;;;;5.57;1.93;;;;;;;3.54;96.19;152274.47;5048394;28;20431;-78
2022/02/22 05:20:31;;;;;;;5.73;2.23;;;;;;;3.52;96.40;152268.03;5031429;28;20442;-78
2022/02/22 05:23:07;;;;;;;3.60;1.90;;;;;;;3.51;96.67;152266.75;5028897;28;20447;-78
2022/02/22 05:25:42;;;;;;;3.60;2.07;;;;;;;3.51;97.28;152266.75;5014796;28;20466;-78
2022/02/22 05:28:22;;;;;;;2.40;2.10;;;;;;;3.46;96.65;152253.88;5045795;28;20439;-78
2022/02/22 05:30:59;;;;;;;3.27;2.27;;;;;;;3.45;95.22;152250.00;5030713;28;20459;-78
2022/02/22 05:33:35;;;;;;;6.07;2.00;;;;;;;3.46;94.92;152253.88;5015202;28;21046;-78
2022/02/22 05:36:11;;;;;;;7.20;2.53;;;;;;;3.45;96.49;152251.28;5047747;28;20458;-78
2022/02/22 05:38:46;;;;;;;4.23;2.07;;;;;;;3.43;96.67;152246.16;5026345;28;21001;-78
2022/02/22 05:41:22;;;;;;;3.90;1.70;;;;;;;3.43;97.37;152244.84;5029256;28;20465;-77
2022/02/22 05:43:58;;;;;;;4.50;2.07;;;;;;;3.40;96.69;152238.41;5011477;28;20443;-79
2022/02/22 05:46:35;;;;;;;6.53;2.20;;;;;;;3.35;95.19;152225.56;5028895;28;20466;-79
2022/02/22 05:49:11;;;;;;;3.50;2.00;;;;;;;3.36;95.53;152228.09;5029912;28;20534;-79
2022/02/22 05:51:48;;;;;;;1.97;1.70;;;;;;;3.32;95.87;152216.53;5047912;28;20516;-78
2022/02/22 05:54:23;;;;;;;3.10;1.80;;;;;;;3.34;96.37;152222.97;5018676;28;20430;-78
2022/02/22 05:56:59;;;;;;;4.70;2.47;;;;;;;3.28;94.50;152207.56;5034683;28;20450;-78
2022/02/22 05:59:35;;;;;;;2.23;2.03;;;;;;;3.27;95.68;152204.97;5052076;28;20529;-78
2022/02/22 06:02:12;;;;;;;3.73;2.07;;;;;;;3.20;95.24;152186.97;5029478;28;20454;-78
2022/02/22 06:04:47;;;;;;;3.43;1.80;;;;;;;3.20;96.16;152185.66;5031436;28;20455;-78
2022/02/22 06:07:23;;;;;;;3.70;1.77;;;;;;;3.18;97.02;152181.78;5031088;28;20474;-78
2022/02/22 06:09:59;;;;;;;4.03;1.90;;;;;;;3.19;97.10;152184.38;5031982;28;20930;-78
2022/02/22 06:12:35;;;;;;;5.10;2.50;;;;;;;3.14;95.68;152170.22;5032506;28;20446;-78
2022/02/22 06:15:11;;;;;;;1.93;1.70;;;;;;;3.17;95.92;152179.22;5029336;28;20446;-78
2022/02/22 06:17:49;;;;;;;3.90;2.13;;;;;;;3.14;96.74;152170.22;5031515;28;20450;-78
2022/02/22 06:20:27;;;;;;;4.50;2.23;;;;;;;3.11;96.27;152163.78;5009893;28;20453;-78
2022/02/22 06:23:03;;;;;;;6.13;2.80;;;;;;;3.10;96.84;152161.19;5028623;28;20439;-78
2022/02/22 06:25:38;;;;;;;2.77;1.80;;;;;;;3.08;97.19;152156.06;5048968;28;20473;-78
2022/02/22 06:28:14;;;;;;;4.40;2.20;;;;;;;3.10;95.53;152161.19;5013803;28;20491;-78
2022/02/22 06:30:50;;;;;;;5.83;2.33;;;;;;;3.06;97.14;152152.22;5031762;28;20455;-77
2022/02/22 06:33:27;;;;;;;4.73;1.90;;;;;;;3.05;98.12;152149.63;5033823;28;20834;-78
2022/02/22 06:36:03;;;;;;;4.40;2.57;;;;;;;3.06;97.77;152150.91;5018343;28;20449;-78
2022/02/22 06:38:38;;;;;;;5.90;2.77;;;;;;;3.13;98.16;152167.63;5025694;28;20463;-78
2022/02/22 06:41:14;;;;;;;5.00;2.83;;;;;;;3.25;96.99;152199.81;5049340;28;21058;-78
2022/02/22 06:43:49;;;;;;;2.90;2.07;;;;;;;3.29;98.77;152208.81;5029220;28;20917;-78
2022/02/22 06:46:25;;;;;;;4.93;2.97;;;;;;;3.36;97.33;152226.84;5031839;28;20455;-79
2022/02/22 06:49:02;;;;;;;5.20;2.80;;;;;;;3.44;96.22;152248.69;5050840;28;20467;-78
2022/02/22 06:51:38;;;;;;;4.87;2.90;;;;;;;3.55;96.43;152277.03;5050948;28;20451;-79
2022/02/22 06:54:13;;;;;;;3.77;2.07;;;;;;;3.57;95.84;152282.16;5034033;28;20534;-78
2022/02/22 06:56:49;;;;;;;6.27;2.70;;;;;;;3.51;97.04;152265.44;5017204;28;20462;-79
2022/02/22 06:59:26;;;;;;;3.60;2.27;;;;;;;3.47;97.24;152256.44;5031860;28;20473;-78
2022/02/22 07:02:02;;;;;;;3.53;2.20;;;;;;;3.56;95.48;152279.63;5031826;28;20803;-78
2022/02/22 07:04:37;;;;;;;3.10;2.50;;;;;;;3.54;96.56;152274.47;5032834;28;20541;-78
2022/02/22 07:07:13;;;;;;;4.27;2.30;;;;;;;3.53;95.24;152271.88;5028783;28;20470;-78
2022/02/22 07:09:48;;;;;;;4.77;2.57;;;;;;;3.58;96.48;152284.75;5012566;28;20523;-78
2022/02/22 07:12:24;;;;;;;5.00;2.50;;;;;;;3.75;95.36;152327.25;5022981;28;20478;-78
2022/02/22 07:15:02;;;;;;;4.13;2.57;;;;;;;3.94;95.43;152374.88;5029700;28;20426;-78
2022/02/22 07:17:48;;;;;;;3.80;2.43;;;;;;;4.09;95.03;152413.50;5046245;28;20504;-78
2022/02/22 07:20:24;;;;;;;5.60;2.67;;;;;;;4.22;94.51;152447.00;5033746;28;20451;-78
2022/02/22 07:23:00;;;;;;;4.60;2.60;;;;;;;4.44;92.55;152503.69;5048875;28;20445;-79
2022/02/22 07:25:36;;;;;;;6.17;2.80;;;;;;;4.63;93.14;152552.59;5011323;28;20820;-79
2022/02/22 07:28:12;;;;;;;4.37;2.13;;;;;;;4.75;91.58;152582.25;5048176;28;20477;-79
2022/02/22 07:30:49;;;;;;;6.17;2.33;;;;;;;4.90;89.63;152622.19;5014099;28;20455;-79
2022/02/22 07:33:24;;;;;;;5.70;2.90;;;;;;;5.05;89.91;152658.31;5031657;28;20549;-79
2022/02/22 07:36:00;;;;;;;3.90;2.67;;;;;;;5.15;88.39;152684.06;5021239;28;20462;-79
2022/02/22 07:38:35;;;;;;;4.23;3.00;;;;;;;5.18;88.11;152691.81;5030168;28;20426;-79
2022/02/22 07:41:11;;;;;;;3.90;2.63;;;;;;;5.10;88.39;152671.19;5028293;28;20440;-79
2022/02/22 07:43:47;;;;;;;6.10;3.03;;;;;;;5.04;87.19;152655.69;5048032;28;20439;-79
2022/02/22 07:46:24;;;;;;;4.90;2.57;;;;;;;5.09;88.76;152669.88;5027346;28;20538;-79
2022/02/22 07:48:59;;;;;;;5.97;2.60;;;;;;;5.25;86.75;152709.84;5032148;28;20470;-79
2022/02/22 07:51:35;;;;;;;6.60;2.37;;;;;;;5.52;87.86;152780.78;5026108;28;20454;-79
2022/02/22 07:54:10;;;;;;;4.33;2.70;;;;;;;5.86;85.80;152865.91;5031521;28;20458;-79
2022/02/22 07:56:46;;;;;;;8.83;2.63;;;;;;;6.26;83.44;152969.13;5049391;28;20984;-79
2022/02/22 07:59:21;;;;;;;6.20;2.60;;;;;;;6.59;81.02;153053.00;5028828;28;20534;-79
2022/02/22 08:01:58;;;;;;;4.63;2.20;;;;;;;6.68;81.35;153076.22;5028320;28;20463;-80
2022/02/22 08:04:34;;;;;;;4.60;2.60;;;;;;;6.77;80.11;153099.47;5031699;28;20446;-80
2022/02/22 08:07:11;;;;;;;5.83;2.43;;;;;;;6.84;80.30;153117.53;5029788;28;20463;-80
2022/02/22 08:09:47;;;;;;;6.07;3.23;;;;;;;6.87;79.73;153125.28;5047370;28;20446;-80
2022/02/22 08:12:23;;;;;;;5.80;2.67;;;;;;;7.08;79.75;153178.19;5032025;28;20473;-80
2022/02/22 08:14:58;;;;;;;6.17;2.37;;;;;;;7.08;78.98;153178.19;5031684;28;20485;-80
2022/02/22 08:17:40;;;;;;;4.47;2.00;;;;;;;7.09;79.44;153180.81;5029863;28;20450;-80
2022/02/22 08:20:15;;;;;;;4.90;2.00;;;;;;;7.27;79.48;153228.56;5031086;28;21031;-79
2022/02/22 08:22:53;;;;;;;4.50;2.50;;;;;;;7.22;81.69;153214.38;5031130;28;20863;-79
2022/02/22 08:25:29;;;;;;;4.97;2.23;;;;;;;7.16;78.72;153200.16;5032472;28;20446;-80
2022/02/22 08:28:09;;;;;;;5.17;2.37;;;;;;;7.05;78.90;153171.75;5017578;28;20494;-79
2022/02/22 08:30:44;;;;;;;6.40;2.20;;;;;;;7.04;80.35;153167.91;5015916;28;20557;-79
2022/02/22 08:33:21;;;;;;;4.03;1.70;;;;;;;7.08;78.65;153178.19;5034220;28;22154;-79
2022/02/22 08:35:57;;;;;;;4.63;2.00;;;;;;;7.03;76.43;153165.28;5028812;28;20458;-79
2022/02/22 08:38:33;;;;;;;4.00;2.30;;;;;;;7.01;78.10;153161.44;5047312;28;20436;-80
2022/02/22 08:41:09;;;;;;;4.70;2.03;;;;;;;7.12;79.93;153189.81;5012981;28;20550;-80
2022/02/22 08:43:45;;;;;;;4.40;2.43;;;;;;;7.22;78.12;153214.38;5032296;28;20541;-80
2022/02/22 08:46:21;;;;;;;3.73;2.03;;;;;;;7.25;77.65;153223.38;5032518;28;20933;-80
2022/02/22 08:48:58;;;;;;;4.37;1.87;;;;;;;7.21;78.26;153213.06;5030957;28;20601;-80
2022/02/22 08:51:33;;;;;;;3.90;2.20;;;;;;;7.32;76.19;153241.47;5031117;28;20926;-79
2022/02/22 08:54:09;;;;;;;6.23;2.43;;;;;;;7.22;77.18;153215.66;5008689;28;20446;-79
2022/02/22 08:56:45;;;;;;;4.20;2.10;;;;;;;7.07;77.95;153175.66;5029367;28;20452;-80
2022/02/22 08:59:20;;;;;;;7.93;2.67;;;;;;;7.01;78.47;153161.44;5029756;28;20806;-80
2022/02/22 09:01:56;;;;;;;3.57;2.10;;;;;;;7.02;77.39;153164.00;5031066;28;20458;-80
2022/02/22 09:04:33;;;;;;;6.07;2.17;;;;;;;6.95;79.62;153145.94;5028493;28;20458;-80
2022/02/22 09:07:09;;;;;;;7.87;2.37;;;;;;;6.84;78.76;153116.22;5044315;28;20749;-79
2022/02/22 09:09:45;;;;;;;3.40;2.00;;;;;;;6.84;79.03;153117.53;5025874;28;20482;-78
2022/02/22 09:12:20;;;;;;;7.90;2.10;;;;;;;6.79;77.08;153103.31;5014046;28;20447;-80
2022/02/22 09:14:56;;;;;;;5.63;2.10;;;;;;;6.79;79.01;153104.63;5031974;28;20435;-80
2022/02/22 09:17:31;;;;;;;2.33;1.90;;;;;;;6.75;79.86;153095.56;5045656;28;20478;-79
2022/02/22 09:20:11;;;;;;;4.10;2.30;;;;;;;6.79;78.89;153104.63;5030179;28;20447;-79
2022/02/22 09:22:47;;;;;;;2.27;1.30;;;;;;;6.78;77.71;153102.03;5047581;28;20970;-79
2022/02/22 09:25:23;;;;;;;2.30;1.43;;;;;;;6.69;81.49;153078.81;5032337;28;20427;-79
2022/02/22 09:27:58;;;;;;;4.80;1.70;;;;;;;6.64;82.86;153067.22;5029325;28;20541;-79
2022/02/22 09:30:35;;;;;;;3.73;2.00;;;;;;;6.60;80.85;153056.88;5049864;28;20450;-79
2022/02/22 09:33:10;;;;;;;2.93;1.80;;;;;;;6.51;80.91;153032.38;5034144;28;20442;-79
2022/02/22 09:35:47;;;;;;;3.07;1.67;;;;;;;6.49;80.58;153028.47;5022447;28;20462;-79
2022/02/22 09:38:23;;;;;;;2.40;1.80;;;;;;;6.54;80.68;153040.13;5050516;28;20446;-79
2022/02/22 09:41:01;;;;;;;7.50;2.60;;;;;;;6.55;82.60;153042.66;5031873;28;20581;-79
2022/02/22 09:43:37;;;;;;;4.80;1.80;;;;;;;6.60;83.42;153055.56;5032910;28;20853;-79
2022/02/22 09:46:12;;;;;;;3.60;1.70;;;;;;;6.55;82.74;153042.66;5020147;28;20557;-79
2022/02/22 09:48:47;;;;;;;5.20;2.07;;;;;;;6.51;83.83;153033.63;5017859;28;20474;-79
2022/02/22 09:51:24;;;;;;;5.83;2.20;;;;;;;6.57;81.73;153047.81;5031720;28;20459;-79
2022/02/22 09:54:00;;;;;;;3.00;1.73;;;;;;;6.58;81.56;153051.72;5037543;28;20860;-79
2022/02/22 09:56:42;;;;;;;5.23;2.03;;;;;;;6.61;82.77;153058.16;5031346;28;20454;-79
2022/02/22 09:59:18;;;;;;;2.67;1.60;;;;;;;6.68;80.60;153077.50;5051368;28;20613;-79
2022/02/22 10:01:55;;;;;;;4.57;2.10;;;;;;;6.62;81.11;153060.72;5050706;28;20462;-79
2022/02/22 10:04:41;;;;;;;4.20;2.13;;;;;;;6.64;80.33;153065.91;5031665;28;20515;-79
2022/02/22 10:07:18;;;;;;;2.53;1.73;;;;;;;6.59;78.72;153053.00;5033412;28;20450;-79
2022/02/22 10:09:59;;;;;;;2.67;1.73;;;;;;;6.66;80.95;153071.06;5056059;28;20438;-79
2022/02/22 10:12:35;;;;;;;3.90;1.70;;;;;;;6.68;80.38;153076.22;5051445;28;20497;-79
2022/02/22 10:15:11;;;;;;;2.87;1.50;;;;;;;6.73;80.90;153090.41;5049927;28;20434;-79
2022/02/22 10:17:50;;;;;;;2.77;1.63;;;;;;;6.80;80.10;153107.22;5032135;28;20446;-79
2022/02/22 10:20:26;;;;;;;2.73;1.70;;;;;;;6.87;82.64;153125.28;5030538;28;20455;-79
2022/02/22 10:23:06;;;;;;;4.30;2.00;;;;;;;6.95;79.99;153145.94;5033051;28;20449;-79
2022/02/22 10:25:42;;;;;;;6.47;2.00;;;;;;;6.94;81.94;153143.34;5026648;28;20446;-79
2022/02/22 10:28:19;;;;;;;5.13;1.87;;;;;;;6.96;80.04;153147.25;5036030;28;20475;-79
2022/02/22 10:30:54;;;;;;;3.60;2.00;;;;;;;7.03;81.54;153166.59;5018251;28;20443;-79
2022/02/22 10:33:30;;;;;;;3.03;1.87;;;;;;;7.09;81.41;153182.09;5031672;28;20447;-79
2022/02/22 10:36:06;;;;;;;4.30;2.10;;;;;;;7.16;82.66;153198.84;5015425;28;20451;-79
2022/02/22 10:38:43;;;;;;;4.57;2.20;;;;;;;7.24;79.17;153219.53;5011370;28;20451;-79
2022/02/22 10:41:25;;;;;;;5.10;1.80;;;;;;;7.21;79.93;153213.06;5015977;28;20466;-79
2022/02/22 10:44:02;;;;;;;5.93;1.87;;;;;;;7.25;79.72;153223.38;5031938;28;20787;-79
2022/02/22 10:46:45;;;;;;;2.93;2.03;;;;;;;7.24;79.08;153220.81;5029385;28;20806;-79
2022/02/22 10:49:23;;;;;;;3.87;2.10;;;;;;;7.27;79.75;153228.56;5050073;28;20470;-79
2022/02/22 10:52:05;;;;;;;6.07;2.07;;;;;;;7.41;79.22;153262.16;5032368;28;20921;-79
2022/02/22 10:54:42;;;;;;;4.53;2.77;;;;;;;7.47;79.86;153277.63;5017554;28;20450;-79
2022/02/22 10:57:17;;;;;;;3.70;2.57;;;;;;;7.62;79.49;153316.41;5046820;28;20482;-79
2022/02/22 10:59:53;;;;;;;6.60;2.37;;;;;;;7.62;78.37;153316.41;5031336;28;20814;-79
2022/02/22 11:02:29;;;;;;;4.37;2.10;;;;;;;7.67;79.44;153329.31;5029697;28;20459;-79
2022/02/22 11:05:06;;;;;;;4.63;2.00;;;;;;;7.70;77.12;153338.38;5031105;28;20458;-79
2022/02/22 11:07:41;;;;;;;4.90;2.10;;;;;;;7.64;78.12;153321.56;5030634;28;20446;-79
2022/02/22 11:10:19;;;;;;;3.50;2.10;;;;;;;7.68;77.24;153331.84;5010208;28;20873;-79
2022/02/22 11:12:56;;;;;;;2.43;1.87;;;;;;;7.70;77.80;153337.06;5046766;28;20439;-79
2022/02/22 11:15:36;;;;;;;3.50;1.80;;;;;;;7.71;78.05;153339.63;5027867;28;20537;-79
2022/02/22 11:18:21;;;;;;;4.10;2.00;;;;;;;7.66;79.62;153326.72;5033646;28;20440;-79
2022/02/22 11:20:57;;;;;;;4.60;2.07;;;;;;;7.64;78.29;153321.56;5033240;28;20442;-79
2022/02/22 11:23:33;;;;;;;4.17;2.27;;;;;;;7.66;78.41;153326.72;5031769;28;20461;-79
2022/02/22 11:26:13;;;;;;;4.10;2.17;;;;;;;7.71;77.94;153339.63;5015429;28;20523;-79
2022/02/22 11:28:51;;;;;;;6.03;2.00;;;;;;;7.77;80.46;153355.13;5033375;28;22470;-79
2022/02/22 11:31:30;;;;;;;8.47;2.13;;;;;;;7.70;78.88;153337.06;5031796;28;20451;-79
2022/02/22 11:34:05;;;;;;;4.90;2.00;;;;;;;7.70;80.45;153338.38;5049048;28;20446;-79
2022/02/22 11:36:44;;;;;;;4.80;2.03;;;;;;;7.79;81.79;153361.59;5018595;28;20852;-79
2022/02/22 11:39:23;;;;;;;2.70;2.30;;;;;;;7.88;79.65;153384.88;5028681;28;21090;-79
2022/02/22 11:42:00;;;;;;;5.37;2.07;;;;;;;7.88;81.65;153383.56;5032037;28;20450;-79
2022/02/22 11:44:35;;;;;;;4.50;2.27;;;;;;;7.99;78.10;153412.00;5031717;28;20901;-79
2022/02/22 11:47:16;;;;;;;4.70;1.73;;;;;;;7.98;77.51;153409.41;5027883;28;21097;-79
2022/02/22 11:49:54;;;;;;;3.03;2.00;;;;;;;7.97;77.64;153406.78;5026291;28;20475;-79
2022/02/22 11:52:37;;;;;;;2.90;1.63;;;;;;;8.00;77.77;153414.53;5026339;28;20523;-79
2022/02/22 11:55:16;;;;;;;4.90;2.40;;;;;;;8.01;77.40;153417.16;5026020;28;20894;-78
2022/02/22 11:57:54;;;;;;;7.50;2.30;;;;;;;8.04;80.71;153424.91;5021145;28;20451;-78
2022/02/22 12:00:36;;;;;;;5.00;1.90;;;;;;;8.02;79.82;153419.75;5027234;28;21045;-78
2022/02/22 12:03:13;;;;;;;6.20;2.20;;;;;;;8.08;78.95;153435.22;5022935;28;20452;-79
2022/02/22 12:05:53;;;;;;;4.07;2.00;;;;;;;8.18;77.04;153459.81;5021075;28;20464;-79
2022/02/22 12:08:34;;;;;;;5.30;2.40;;;;;;;8.15;77.69;153453.34;5044779;28;20468;-78
2022/02/22 12:11:16;;;;;;;4.83;2.30;;;;;;;8.20;77.80;153466.28;5025515;28;20796;-78
2022/02/22 12:13:57;;;;;;;9.20;2.57;;;;;;;8.20;78.27;153466.28;5013919;28;20439;-79
2022/02/22 12:16:33;;;;;;;2.33;2.03;;;;;;;8.19;78.13;153463.66;5030523;28;20479;-79